Terminal Aerodrome Forecast
Issued by NWS

Home | Current Version | Previous Version | Text Only | Print | Product List | Glossary On
Versions: 1 2 3 4 5 6 7 8 9 10 11 12 13 14 15 16 17 18 19 20 21 22 23 24 25 26 27 28 29 30 31 32 33 34 35 36 37 38 39 40 41 42 43 44 45 46 47 48 49 50
000
FTUS45 KGJT 190621 AAB
TAFASE
TAF AMD
KASE 190621Z 1906/2006 01004KT P6SM VCSH SCT014 OVC050
      TEMPO 1906/1909 -SN BKN012
     FM190900 VRB03KT 4SM BR SCT001 OVC009
      TEMPO 1910/1914 2SM BR BKN001
     FM191500 VRB03KT 5SM BR SCT003 BKN014
     FM191700 35007KT P6SM BKN050
     FM200200 21004KT P6SM BKN050=

USA.gov is the U.S. government's official web portal to all federal, state and local government web resources and services.